VE3HOA Weather Reports


Display with metric or nautical units.
time (UTC)temp
F
wind
direction
speed
MPH
gust
MPH
rain 1hr
in
rain 24hr
in
rain mn
in
humidity
%
barometer
mb
20260507010057 49 223 5.0 10.0 0.00 0.01 0.01 67 1008.9
20260507005551 49 240 4.0 11.0 0.00 0.01 0.01 67 1008.8
20260507005055 49 153 4.0 11.0 0.00 0.01 0.01 68 1008.8
20260507004556 48 231 5.0 11.0 0.00 0.01 0.01 69 1008.8
20260507004048 48 245 2.0 7.0 0.00 0.01 0.01 68 1008.8
20260507003549 49 191 3.0 9.0 0.00 0.01 0.01 66 1008.8
20260507003059 49 247 4.0 11.0 0.00 0.01 0.01 65 1008.6
20260507002548 49 186 4.0 12.0 0.00 0.01 0.01 65 1008.6
20260507002051 49 189 5.0 13.0 0.00 0.01 0.01 64 1008.5
20260507001617 49 208 4.0 13.0 0.00 0.01 0.01 64 1008.5
20260507001048 49 182 3.0 10.0 0.00 0.01 0.01 64 1008.4
20260507000551 49 195 4.0 11.0 0.00 0.02 0.02 63 1008.5
20260507000059 49 199 4.0 11.0 0.00 0.02 0.02 63 1008.3
20260506235549 49 200 5.0 11.0 0.00 0.02 0.02 63 1008.3
20260506235052 49 167 4.0 16.0 0.00 0.02 0.02 63 1008.3
20260506234602 49 201 4.0 16.0 0.00 0.02 0.02 63 1008.1
20260506234048 50 185 5.0 15.0 0.00 0.02 0.02 62 1008.0
20260506233552 50 210 5.0 15.0 0.00 0.02 0.02 62 1008.1
20260506233056 50 161 7.0 12.0 0.00 0.02 0.02 62 1008.0
20260506232553 50 184 5.0 13.0 0.00 0.02 0.02 62 1007.9
20260506232048 50 174 4.0 13.0 0.00 0.02 0.02 63 1008.0
20260506231558 50 186 4.0 11.0 0.00 0.02 0.02 63 1007.9
20260506231048 50 180 4.0 9.0 0.00 0.02 0.02 63 1007.9
20260506230550 50 181 0.0 9.0 0.00 0.02 0.02 63 1007.9
20260506230059 57 0 0.0 0.0 0.00 0.02 0.02 72 1007.8
20260506225550 55 0 0.0 2.0 0.00 0.02 0.02 76 1007.7
20260506225048 52 0 0.0 6.0 0.00 0.02 0.02 79 1007.8
20260506224552 50 0 0.0 6.0 0.00 0.02 0.02 76 1007.8
20260506224048 50 155 0.0 3.0 0.00 0.02 0.02 68 1007.8
20260506223551 50 142 1.0 3.0 0.00 0.02 0.02 67 1007.8
20260506223055 51 207 0.0 3.0 0.00 0.02 0.02 67 1007.9
20260506222549 51 217 0.0 3.0 0.00 0.02 0.02 66 1008.0
20260506222052 51 113 1.0 3.0 0.00 0.02 0.02 66 1008.0
20260506221551 51 0 1.0 5.0 0.00 0.02 0.02 65 1008.0
20260506221049 51 211 1.0 5.0 0.00 0.02 0.02 64 1008.0
20260506220549 51 153 1.0 4.0 0.00 0.02 0.02 64 1007.9
20260506215548 52 111 0.0 2.0 0.01 0.02 0.02 64 1007.8
20260506215049 52 197 0.0 4.0 0.02 0.02 0.02 63 1007.9
20260506214554 52 187 0.0 4.0 0.02 0.02 0.02 62 1007.9
20260506214049 52 245 0.0 4.0 0.02 0.02 0.02 62 1008.0
20260506213550 52 155 1.0 3.0 0.02 0.02 0.02 62 1007.9
20260506213101 52 205 0.0 4.0 0.02 0.02 0.02 61 1007.8
20260506212549 52 224 1.0 4.0 0.02 0.02 0.02 61 1007.9
20260506212052 53 236 1.0 4.0 0.02 0.02 0.02 60 1007.7
20260506211552 53 208 1.0 4.0 0.02 0.02 0.02 59 1007.8
20260506211049 53 228 1.0 6.0 0.02 0.02 0.02 58 1007.9
20260506210551 54 0 1.0 6.0 0.02 0.02 0.02 57 1007.9
20260506210100 54 0 2.0 6.0 0.02 0.02 0.02 57 1007.9
20260506205549 55 0 0.0 4.0 0.01 0.01 0.01 66 1007.8
20260506205050 53 268 0.0 4.0 0.00 0.00 0.00 58 1007.7
20260506204553 53 0 0.0 7.0 0.00 0.00 0.00 56 1007.7
20260506204051 53 55 1.0 7.0 0.00 0.00 0.00 56 1007.7
20260506203549 54 314 2.0 7.0 0.00 0.00 0.00 56 1007.7
20260506203139 54 0 0.0 9.0 0.00 0.00 0.00 55 1007.6
20260506202552 54 0 1.0 9.0 0.00 0.00 0.00 56 1007.5
20260506202049 55 320 1.0 6.0 0.00 0.00 0.00 53 1007.5
20260506201552 56 314 0.0 8.0 0.00 0.00 0.00 53 1007.5
20260506201049 56 199 0.0 8.0 0.00 0.00 0.00 54 1007.6
20260506200549 55 235 0.0 6.0 0.00 0.00 0.00 54 1007.8
20260506200053 54 160 2.0 13.0 0.00 0.00 0.00 55 1007.6
20260506195548 55 0 0.0 13.0 0.00 0.00 0.00 55 1007.7
20260506195049 53 141 5.0 13.0 0.00 0.00 0.00 56 1007.9
20260506194555 53 155 4.0 8.0 0.00 0.00 0.00 56 1008.0
20260506194050 53 139 2.0 9.0 0.00 0.00 0.00 58 1008.0
20260506193548 53 93 3.0 9.0 0.00 0.00 0.00 58 1007.9
20260506193052 52 112 3.0 11.0 0.00 0.00 0.00 58 1007.9
20260506192549 52 216 4.0 11.0 0.00 0.00 0.00 59 1008.1
20260506192048 52 136 3.0 11.0 0.00 0.00 0.00 58 1008.1
20260506191559 52 156 5.0 11.0 0.00 0.00 0.00 58 1008.2
20260506191048 52 174 5.0 11.0 0.00 0.00 0.00 58 1008.2
20260506190549 51 149 4.0 10.0 0.00 0.00 0.00 59 1008.2
20260506190056 51 146 5.0 9.0 0.00 0.00 0.00 60 1008.2
20260506185548 52 160 4.0 8.0 0.00 0.00 0.00 59 1008.3
20260506185049 52 217 4.0 8.0 0.00 0.00 0.00 59 1008.3
20260506184603 52 163 3.0 7.0 0.00 0.00 0.00 59 1008.3
20260506184052 52 206 3.0 7.0 0.00 0.00 0.00 58 1008.3
20260506183549 51 116 4.0 7.0 0.00 0.00 0.00 59 1008.3
20260506183101 51 96 3.0 9.0 0.00 0.00 0.00 59 1008.3
20260506182548 51 150 3.0 9.0 0.00 0.00 0.00 58 1008.4
20260506182048 51 203 5.0 9.0 0.00 0.00 0.00 60 1008.5
20260506181556 50 200 6.0 10.0 0.00 0.00 0.00 58 1008.4
20260506181049 50 229 4.0 10.0 0.00 0.00 0.00 61 1008.5
20260506180548 50 258 6.0 10.0 0.00 0.00 0.00 60 1008.6
20260506180055 51 200 4.0 10.0 0.00 0.00 0.00 63 1008.6
20260506175548 50 124 4.0 10.0 0.00 0.00 0.00 62 1008.4
20260506175052 50 198 4.0 10.0 0.00 0.00 0.00 63 1008.6
20260506174607 50 136 5.0 10.0 0.00 0.00 0.00 63 1008.7
20260506174052 49 121 7.0 10.0 0.00 0.00 0.00 61 1008.7
20260506173549 49 163 5.0 10.0 0.00 0.00 0.00 64 1008.7
20260506173058 49 148 4.0 8.0 0.00 0.00 0.00 64 1008.8
20260506172548 49 207 3.0 9.0 0.00 0.00 0.00 65 1008.9
20260506172048 48 200 4.0 9.0 0.00 0.00 0.00 65 1008.8
20260506171602 48 205 4.0 9.0 0.00 0.00 0.00 66 1008.8
20260506171048 48 130 3.0 9.0 0.00 0.00 0.00 67 1008.8
20260506170548 48 233 3.0 9.0 0.00 0.00 0.00 68 1008.8
20260506170053 47 183 4.0 9.0 0.00 0.00 0.00 68 1008.8
20260506165548 47 131 4.0 8.0 0.00 0.00 0.00 69 1008.7
20260506165049 47 138 4.0 8.0 0.00 0.00 0.00 69 1008.8
20260506164557 46 222 3.0 8.0 0.00 0.00 0.00 70 1008.8
20260506164048 46 181 4.0 7.0 0.00 0.00 0.00 70 1008.9
20260506163548 46 198 3.0 9.0 0.00 0.00 0.00 70 1009.1
20260506163116 46 214 3.0 9.0 0.00 0.00 0.00 70 1009.1
20260506162548 46 184 3.0 11.0 0.00 0.00 0.00 69 1009.1
20260506162050 46 209 4.0 11.0 0.00 0.00 0.00 69 1009.1
20260506161552 46 138 3.0 8.0 0.00 0.00 0.00 68 1009.1
20260506161048 46 162 3.0 8.0 0.00 0.00 0.00 68 1009.0
20260506160548 46 208 3.0 9.0 0.00 0.00 0.00 67 1008.8
20260506160059 46 188 3.0 9.0 0.00 0.00 0.00 68 1009.1
20260506155549 46 165 4.0 8.0 0.00 0.00 0.00 68 1009.3
20260506155049 46 201 3.0 8.0 0.00 0.00 0.00 68 1009.2
20260506154555 46 210 2.0 10.0 0.00 0.00 0.00 68 1009.1
20260506154053 46 158 5.0 10.0 0.00 0.00 0.00 68 1009.1
20260506153549 46 113 3.0 8.0 0.00 0.00 0.00 69 1009.1
20260506153058 46 233 4.0 8.0 0.00 0.00 0.00 69 1009.2
20260506152552 46 203 4.0 8.0 0.00 0.00 0.00 70 1009.3
20260506152049 46 186 4.0 8.0 0.00 0.00 0.00 70 1009.3
20260506151555 46 233 3.0 8.0 0.00 0.00 0.00 70 1009.2
20260506151048 46 129 3.0 7.0 0.00 0.00 0.00 70 1009.3
20260506150548 46 156 3.0 8.0 0.00 0.00 0.00 70 1009.3
20260506150055 46 209 2.0 10.0 0.00 0.00 0.00 70 1009.2
20260506145551 45 137 3.0 10.0 0.00 0.00 0.00 71 1009.4
20260506145046 45 136 4.0 10.0 0.00 0.00 0.00 71 1009.4
20260506144555 45 203 3.0 9.0 0.00 0.00 0.00 71 1009.5
20260506144049 45 139 3.0 9.0 0.00 0.00 0.00 71 1009.4
20260506143550 45 165 4.0 8.0 0.00 0.00 0.00 71 1009.5
20260506143056 45 240 3.0 8.0 0.00 0.00 0.00 71 1009.5
20260506142549 45 166 5.0 8.0 0.00 0.00 0.00 71 1009.4
20260506142048 45 192 1.0 8.0 0.00 0.00 0.00 70 1009.4
20260506141556 45 114 4.0 10.0 0.00 0.00 0.00 71 1009.4
20260506141049 45 160 4.0 10.0 0.00 0.00 0.00 70 1009.3
20260506140551 45 153 5.0 10.0 0.00 0.00 0.00 70 1009.3
20260506140053 46 149 3.0 9.0 0.00 0.00 0.00 67 1009.2
20260506135548 46 160 2.0 5.0 0.00 0.00 0.00 62 1009.2
20260506135048 46 135 2.0 5.0 0.00 0.00 0.00 63 1009.3
20260506134557 45 154 2.0 5.0 0.00 0.00 0.00 63 1009.1
20260506134048 45 148 2.0 8.0 0.00 0.00 0.00 64 1009.1
20260506133547 45 135 2.0 8.0 0.00 0.00 0.00 65 1009.2
20260506133053 45 152 2.0 6.0 0.00 0.00 0.00 64 1009.0
20260506132550 45 196 2.0 5.0 0.00 0.00 0.00 64 1009.1
20260506132049 45 158 3.0 6.0 0.00 0.00 0.00 64 1009.1
20260506131551 45 102 3.0 6.0 0.00 0.00 0.00 66 1009.1
20260506131049 46 212 0.0 3.0 0.00 0.00 0.00 68 1009.2
20260506130550 45 245 0.0 3.0 0.00 0.00 0.00 70 1009.2
20260506130056 45 150 2.0 4.0 0.00 0.00 0.00 70 1009.1
20260506125549 45 160 2.0 4.0 0.00 0.00 0.00 71 1009.0
20260506125053 45 141 0.0 1.0 0.00 0.00 0.00 72 1009.0
20260506124557 45 209 0.0 3.0 0.00 0.00 0.00 71 1009.2
20260506124048 45 143 1.0 4.0 0.00 0.00 0.00 71 1009.2
20260506123548 45 181 1.0 4.0 0.00 0.00 0.00 71 1009.1
20260506123107 45 209 0.0 2.0 0.00 0.00 0.00 70 1009.1
20260506122549 45 0 0.0 2.0 0.00 0.00 0.00 68 1009.1
20260506122049 45 0 0.0 1.0 0.00 0.00 0.00 69 1009.1
20260506121608 45 0 0.0 1.0 0.00 0.00 0.00 68 1009.2
20260506121048 45 0 0.0 1.0 0.00 0.00 0.00 68 1009.2
20260506120550 45 0 0.0 1.0 0.00 0.00 0.00 68 1009.2
20260506120059 45 161 0.0 1.0 0.00 0.00 0.00 68 1009.0
20260506115549 45 0 1.0 1.0 0.00 0.00 0.00 65 1009.0
20260506115049 44 196 0.0 1.0 0.00 0.00 0.00 67 1009.0
20260506114552 44 231 0.0 1.0 0.00 0.00 0.00 67 1009.1
20260506114048 44 0 0.0 2.0 0.00 0.00 0.00 68 1009.1
20260506113548 44 0 0.0 2.0 0.00 0.00 0.00 69 1009.3
20260506113056 44 234 0.0 1.0 0.00 0.00 0.00 68 1009.3
20260506112548 44 247 0.0 1.0 0.00 0.00 0.00 68 1009.2
20260506112048 44 0 0.0 1.0 0.00 0.00 0.00 68 1009.2
20260506111552 44 226 0.0 1.0 0.00 0.00 0.00 67 1009.2
20260506111052 44 0 0.0 1.0 0.00 0.00 0.00 67 1009.1
20260506110548 44 226 0.0 1.0 0.00 0.00 0.00 66 1009.0
20260506110104 44 221 0.0 1.0 0.00 0.00 0.00 66 1009.0
20260506105549 44 224 0.0 2.0 0.00 0.00 0.00 66 1009.1
20260506105049 44 0 0.0 2.0 0.00 0.00 0.00 66 1009.0
20260506104557 45 214 0.0 2.0 0.00 0.00 0.00 66 1009.0
20260506104048 45 225 0.0 2.0 0.00 0.00 0.00 65 1009.0
20260506103549 45 194 1.0 2.0 0.00 0.00 0.00 65 1008.8
20260506103058 45 205 0.0 2.0 0.00 0.00 0.00 65 1008.9
20260506102549 45 235 0.0 2.0 0.00 0.00 0.00 65 1009.0
20260506102048 45 210 0.0 2.0 0.00 0.00 0.00 64 1009.0
20260506101609 45 200 1.0 2.0 0.00 0.00 0.00 63 1008.9
20260506101049 45 183 0.0 3.0 0.00 0.00 0.00 64 1009.0
20260506100549 45 236 1.0 3.0 0.00 0.00 0.00 64 1009.2
20260506100053 45 212 1.0 3.0 0.00 0.00 0.00 64 1009.2
20260506095548 45 217 0.0 3.0 0.00 0.00 0.00 65 1009.2
20260506095049 45 214 1.0 3.0 0.00 0.00 0.00 64 1009.2
20260506094557 45 224 1.0 4.0 0.00 0.00 0.00 63 1009.4
20260506094048 45 219 1.0 4.0 0.00 0.00 0.00 63 1009.4
20260506093552 45 231 1.0 4.0 0.00 0.00 0.00 64 1009.2
20260506093058 44 159 1.0 2.0 0.00 0.00 0.00 64 1009.0
20260506092549 44 153 1.0 2.0 0.00 0.00 0.00 64 1008.9
20260506092050 44 134 0.0 1.0 0.00 0.00 0.00 64 1008.9
20260506091552 44 198 0.0 2.0 0.00 0.00 0.00 64 1009.0
20260506091051 44 224 0.0 2.0 0.00 0.00 0.00 64 1008.9
20260506090548 44 149 1.0 3.0 0.00 0.00 0.00 64 1008.8
20260506085548 44 139 1.0 2.0 0.00 0.00 0.00 64 1008.7
20260506085049 44 149 1.0 2.0 0.00 0.00 0.00 64 1008.8
20260506084616 44 136 1.0 2.0 0.00 0.00 0.00 64 1008.8
20260506084049 45 159 1.0 2.0 0.00 0.00 0.00 64 1008.8
20260506083548 45 205 1.0 2.0 0.00 0.00 0.00 63 1008.9
20260506083055 45 209 0.0 2.0 0.00 0.00 0.00 64 1009.0
20260506082548 45 224 1.0 2.0 0.00 0.00 0.00 63 1009.1
20260506082050 45 220 0.0 2.0 0.00 0.00 0.00 64 1009.1
20260506081605 45 217 1.0 2.0 0.00 0.00 0.00 64 1009.2
20260506081054 45 141 1.0 1.0 0.00 0.00 0.00 64 1009.0
20260506080549 45 153 1.0 2.0 0.00 0.00 0.00 64 1008.9
20260506073054 45 196 1.0 3.0 0.00 0.00 0.00 62 1008.8
20260506072551 45 216 1.0 4.0 0.00 0.00 0.00 61 1008.9
20260506072050 45 234 1.0 4.0 0.00 0.00 0.00 61 1008.9
20260506071556 45 235 1.0 4.0 0.00 0.00 0.00 61 1009.0
20260506071048 45 210 1.0 3.0 0.00 0.00 0.00 61 1009.0
20260506070549 45 221 1.0 3.0 0.00 0.00 0.00 61 1009.1
20260506062050 46 219 0.0 2.0 0.00 0.00 0.00 58 1008.6
20260506061556 46 0 0.0 2.0 0.00 0.00 0.00 58 1008.7
20260506061048 46 250 0.0 2.0 0.00 0.00 0.00 58 1008.8
20260506060549 46 252 0.0 3.0 0.00 0.00 0.00 57 1008.9
20260506051048 47 231 2.0 3.0 0.00 0.00 0.00 56 1009.0
20260506050549 47 228 2.0 3.0 0.00 0.00 0.00 56 1008.9
20260506050113 47 204 2.0 3.0 0.00 0.00 0.00 57 1009.0
20260506045048 47 209 1.0 3.0 0.00 0.00 0.00 57 1009.0
20260506044554 47 200 1.0 3.0 0.00 0.00 0.00 56 1009.0
20260506044048 47 207 1.0 2.0 0.00 0.00 0.00 56 1008.8
20260506043549 47 192 0.0 3.0 0.00 0.00 0.00 56 1008.5
20260506043059 47 225 1.0 6.0 0.00 0.00 0.00 55 1008.6
20260506042549 47 221 1.0 6.0 0.00 0.00 0.00 55 1008.6
20260506042050 47 265 2.0 6.0 0.00 0.00 0.00 56 1008.7
20260506041603 47 227 2.0 6.0 0.00 0.00 0.00 55 1008.7
20260506041048 47 268 2.0 5.0 0.00 0.00 0.00 56 1008.7
20260506040549 47 226 2.0 5.0 0.00 0.00 0.00 57 1008.7
20260506040057 47 232 2.0 5.0 0.00 0.00 0.00 57 1008.6
20260506035550 47 214 2.0 5.0 0.00 0.00 0.00 57 1008.6
20260506035049 48 226 2.0 5.0 0.00 0.00 0.00 57 1008.5
20260506034601 48 233 2.0 6.0 0.00 0.00 0.00 57 1008.5
20260506034049 48 252 3.0 6.0 0.00 0.00 0.00 56 1008.5
20260506033549 48 222 1.0 6.0 0.00 0.00 0.00 57 1008.2
20260506033059 48 219 3.0 7.0 0.00 0.00 0.00 56 1008.3
20260506032548 48 221 3.0 7.0 0.00 0.00 0.00 56 1008.3
20260506032049 48 224 3.0 5.0 0.00 0.00 0.00 56 1008.4
20260506031559 48 208 2.0 5.0 0.00 0.00 0.00 56 1008.3
20260506031048 48 219 2.0 4.0 0.00 0.00 0.00 55 1008.3
20260506030546 48 216 1.0 4.0 0.00 0.00 0.00 55 1008.2
20260506030056 48 190 2.0 4.0 0.00 0.00 0.00 54 1008.1
20260506025550 48 226 2.0 4.0 0.00 0.00 0.00 54 1008.0
20260506025048 49 235 2.0 4.0 0.00 0.00 0.00 54 1007.9
20260506024606 49 231 1.0 4.0 0.00 0.00 0.00 53 1007.9
20260506024049 49 229 1.0 4.0 0.00 0.00 0.00 53 1007.8
20260506023550 49 243 1.0 4.0 0.00 0.00 0.00 52 1007.8
20260506023107 49 229 3.0 8.0 0.00 0.00 0.00 52 1007.8
20260506022549 50 217 3.0 8.0 0.00 0.00 0.00 51 1007.7
20260506022053 50 254 4.0 8.0 0.00 0.00 0.00 50 1007.6
20260506021552 50 228 3.0 10.0 0.00 0.00 0.00 50 1007.7
20260506021049 50 250 4.0 10.0 0.00 0.00 0.00 50 1007.6
20260506020547 50 149 5.0 9.0 0.00 0.00 0.00 50 1007.4
20260506020056 50 269 3.0 7.0 0.00 0.00 0.00 51 1007.5
20260506015549 50 220 3.0 7.0 0.00 0.00 0.00 51 1007.5
20260506015051 50 243 3.0 7.0 0.00 0.00 0.00 50 1007.5
20260506014555 50 205 3.0 7.0 0.00 0.00 0.00 50 1007.4
20260506014048 50 245 3.0 9.0 0.00 0.00 0.00 50 1007.5
20260506013546 50 198 3.0 9.0 0.00 0.00 0.00 49 1007.5
20260506013056 50 269 4.0 9.0 0.00 0.00 0.00 49 1007.4
20260506012551 50 232 3.0 13.0 0.00 0.00 0.00 49 1007.1
20260506012048 51 205 5.0 13.0 0.00 0.00 0.00 49 1007.1
20260506011552 51 235 5.0 13.0 0.00 0.00 0.00 48 1007.0
20260506011048 51 186 4.0 10.0 0.00 0.00 0.00 48 1006.9
20260506010548 51 269 5.0 10.0 0.00 0.00 0.00 48 1006.8